D/T METAR WX W/DIR W/SPE G/SPE TEMP DEWP
9/12/19 11:50 EGDY 091150Z 31019KT 9999 FEW025 SCT050 10/02 Q1016 NOSIG RMK BLU BLU NW (310°) 21.9mph 10°C 2°C
9/12/19 10:50 EGDY 091050Z 31017KT 9999 FEW025 SCT050 10/04 Q1015 NOSIG RMK BLU BLU NW (310°) 19.6mph 10°C 4°C
9/12/19 09:50 EGDY 090950Z 30020KT 9999 FEW025 SCT040 09/04 Q1013 NOSIG RMK BLU BLU WNW (300°) 23.0mph 9°C 4°C
9/12/19 08:50 EGDY 090850Z 31020KT 9999 FEW025 09/04 Q1011 NOSIG RMK BLU BLU NW (310°) 23.0mph 9°C 4°C
9/12/19 07:50 EGDY 090750Z 30020KT 9999 FEW025 08/05 Q1008 NOSIG RMK BLU BLU WNW (300°) 23.0mph 8°C 5°C
9/12/19 06:50 EGDY 090650Z 30018KT 9999 FEW025 09/04 Q1006 NOSIG RMK BLU WNW (300°) 20.7mph 9°C 4°C
9/12/19 05:50 EGDY 090550Z 30023G33KT 9999 FEW025 BKN040 09/05 Q1003 RMK BLU WNW (300°) 26.5mph 38.0mph 9°C 5°C
9/12/19 04:50 EGDY 090450Z 31027G39KT 9999 BKN025 10/05 Q1000 RMK BLU NW (310°) 31.1mph 44.9mph 10°C 5°C
9/12/19 03:50 EGDY 090350Z 29036G50KT 9999 -RA BKN025 10/06 Q0997 BLU -RA WNW (290°) 41.4mph 57.5mph 10°C 6°C
9/12/19 02:50 EGDY 090250Z 28029G46KT 9999 BKN025 10/06 Q0996 BLU W (280°) 33.4mph 52.9mph 10°C 6°C
9/12/19 01:50 EGDY 090150Z 27020KT 9999 -RA BKN025 09/05 Q0995 BLU -RA W (270°) 23.0mph 9°C 5°C
9/12/19 00:50 EGDY 090050Z AUTO 27015G33KT 9999 SCT031/// SCT038/// BKN050/// 09/05 Q0995 RERA W (270°) 17.3mph 38.0mph 9°C 5°C
8/12/19 23:50 EGDY 082350Z AUTO 27020KT 9999 SCT031/// SCT041/// 09/05 Q0995 W (270°) 23.0mph 9°C 5°C
8/12/19 22:50 EGDY 082250Z AUTO 27030G44KT 9999 FEW025/// BKN034/// 09/05 Q0993 RERA W (270°) 34.5mph 50.6mph 9°C 5°C
8/12/19 21:50 EGDY 082150Z AUTO 21018G31KT 9999 BKN028/// SCT050/// 07/05 Q0993 RERA SSW (210°) 20.7mph 35.7mph 7°C 5°C
8/12/19 20:50 EGDY 082050Z AUTO 21011KT 9999 -RA FEW023/// BKN042/// 07/05 Q0995 -RA SSW (210°) 12.7mph 7°C 5°C
8/12/19 19:50 EGDY 081950Z AUTO 24014KT 9999 RA FEW030/// BKN130/// 07/04 Q0998 RA WSW (240°) 16.1mph 7°C 4°C
8/12/19 18:50 EGDY 081850Z AUTO 23013KT 9999 FEW100/// 07/03 Q0998 SW (230°) 15.0mph 7°C 3°C
8/12/19 17:50 EGDY 081750Z AUTO 24011KT 9999 FEW036/// SCT180/// 07/03 Q1000 RERA WSW (240°) 12.7mph 7°C 3°C
8/12/19 16:50 EGDY 081650Z AUTO 25015KT 9999 SCT039/// 08/03 Q1000 WSW (250°) 17.3mph 8°C 3°C
8/12/19 15:50 EGDY 081550Z AUTO 24010KT 9999 FEW160/// 08/03 Q1000 WSW (240°) 11.5mph 8°C 3°C
8/12/19 14:50 EGDY 081450Z AUTO 24014G26KT 9999 FEW028/// BKN160/// 09/05 Q1000 WSW (240°) 16.1mph 29.9mph 9°C 5°C
8/12/19 13:50 EGDY 081350Z AUTO 26012KT 9999 BKN110/// 07/05 Q1001 RERA W (260°) 13.8mph 7°C 5°C
8/12/19 12:50 EGDY 081250Z AUTO 25016G31KT 9999 FEW040/// BKN130/// 10/03 Q1002 WSW (250°) 18.4mph 35.7mph 10°C 3°C
8/12/19 11:50 EGDY 081150Z AUTO 25015KT 9999 BKN100/// 10/04 Q1002 WSW (250°) 17.3mph 10°C 4°C
8/12/19 10:50 EGDY 081050Z AUTO 25017KT 9999 SCT110/// 10/04 Q1003 WSW (250°) 19.6mph 10°C 4°C
8/12/19 09:50 EGDY 080950Z AUTO 25015KT 9999 FEW031/// BKN040/// 10/05 Q1003 WSW (250°) 17.3mph 10°C 5°C
8/12/19 08:50 EGDY 080850Z AUTO 25013KT 9999 SCT033/// 10/05 Q1003 WSW (250°) 15.0mph 10°C 5°C
8/12/19 07:50 EGDY 080750Z AUTO 25014KT 9999 SCT035/// BKN046/// 10/05 Q1003 WSW (250°) 16.1mph 10°C 5°C
8/12/19 06:50 EGDY 080650Z AUTO 25016KT 9999 BKN030/// 10/06 Q1002 WSW (250°) 18.4mph 10°C 6°C
8/12/19 05:50 EGDY 080550Z AUTO 25016G28KT 9999 BKN035/// 10/06 Q1002 WSW (250°) 18.4mph 32.2mph 10°C 6°C
8/12/19 04:50 EGDY 080450Z AUTO 26016KT 9999 SCT031/// 11/07 Q1002 W (260°) 18.4mph 11°C 7°C
8/12/19 03:50 EGDY 080350Z AUTO 26015G27KT 9999 SCT036/// 12/08 Q1001 RERA W (260°) 17.3mph 31.1mph 12°C 8°C
8/12/19 02:50 EGDY 080250Z AUTO 22013KT 9999 FEW012/// BKN020/// 13/11 Q1001 SW (220°) 15.0mph 13°C 11°C
8/12/19 01:50 EGDY 080150Z AUTO 21021KT 9999 FEW011/// BKN044/// 12/11 Q1002 RERA SSW (210°) 24.2mph 12°C 11°C
8/12/19 00:50 EGDY 080050Z AUTO 21021G32KT 6000 RA SCT010/// BKN050/// 11/10 Q1003 RA SSW (210°) 24.2mph 36.8mph 11°C 10°C
7/12/19 23:50 EGDY 072350Z AUTO 20024KT 9999 -RA BKN012/// 11/09 Q1004 -RA SSW (200°) 27.6mph 11°C 9°C
7/12/19 22:50 EGDY 072250Z AUTO 21021G31KT 9999 OVC014/// 11/09 Q1006 SSW (210°) 24.2mph 35.7mph 11°C 9°C
7/12/19 21:50 EGDY 072150Z AUTO 21017KT 9999 OVC013/// 11/08 Q1008 SSW (210°) 19.6mph 11°C 8°C
7/12/19 20:50 EGDY 072050Z AUTO 21014KT 9999 OVC012/// 11/09 Q1009 SSW (210°) 16.1mph 11°C 9°C
7/12/19 19:50 EGDY 071950Z AUTO 22016KT 9999 OVC012/// 11/08 Q1010 SW (220°) 18.4mph 11°C 8°C
7/12/19 18:50 EGDY 071850Z AUTO 20011KT 9999 OVC015/// 11/08 Q1011 SSW (200°) 12.7mph 11°C 8°C
7/12/19 17:50 EGDY 071750Z AUTO 21008KT 9999 OVC017/// 10/08 Q1012 SSW (210°) 9.2mph 10°C 8°C
7/12/19 16:50 EGDY 071650Z AUTO 21008KT 9999 OVC021/// 10/07 Q1013 SSW (210°) 9.2mph 10°C 7°C
7/12/19 15:50 EGDY 071550Z AUTO 22005KT 9999 OVC022/// 10/07 Q1013 SW (220°) 5.8mph 10°C 7°C
7/12/19 14:50 EGDY 071450Z AUTO 22005KT 9999 OVC019/// 10/07 Q1013 SW (220°) 5.8mph 10°C 7°C
7/12/19 13:50 EGDY 071350Z AUTO 24008KT 9999 OVC018/// 10/07 Q1014 WSW (240°) 9.2mph 10°C 7°C
7/12/19 12:50 EGDY 071250Z 24007KT 9999 FEW012 BKN018 10/07 Q1014 RMK WHT WSW (240°) 8.1mph 10°C 7°C